Berta — V2BQ6 — position and weather

sailwx.info

Track history (hours):
 
Tides and Currents Weather Stations Pressure Air Temp Water Temp Dewpoint Dewpoint Depression Visibility Wind Speed Wind Dir Waves Ship Positions

Berta

Last reported at 2015-Jul-01 18:33 UTC. Time now 2015-Jul-03 23:39 UTC.
Position N 59°16' E 004°59'.

Length 107 m; draft 6.8 m.

Type: Cargo ship. MMSI: 304586000.

Date/timePositionNaut miles runAvg speedWind from/ knotsBaromVisibWave heightAir tempDewpointWater temp
2015-Jul-01 18:33N 59°16' E 004°59'1312.6
2015-Jul-01 17:33N 59°07' E 005°16'1211.6
2015-Jul-01 16:33N 59°18' E 005°20'2 0.4
2015-Jul-01 10:33N 59°16' E 005°20'1212.3
2015-Jul-01 09:33N 59°06' E 005°32'10 8.3
2015-Jul-01 08:18N 58°55' E 005°35'0 0.0
2015-Jul-01 07:33N 58°55' E 005°35'0 0.0
2015-Jul-01 06:33N 58°55' E 005°35'0 0.0
2015-Jul-01 05:33N 58°55' E 005°35'5 5.2
2015-Jul-01 04:33N 58°51' E 005°30'8 8.4
2015-Jul-01 03:33N 58°43' E 005°25'1212.3
2015-Jul-01 02:33N 58°31' E 005°29'1212.2
2015-Jul-01 01:33N 58°18' E 005°33'1311.8
2015-Jul-01 00:29N 58°06' E 005°37'168 7.3
2015-Jun-30 01:34N 55°23' E 006°52'1313.3
2015-Jun-30 00:33N 55°11' E 006°60'1313.3
2015-Jun-29 23:33N 54°58' E 007°08'1313.4
2015-Jun-29 22:33N 54°45' E 007°14'1813.4
2015-Jun-29 21:13N 54°28' E 007°25'812.4
2015-Jun-29 20:33N 54°20' E 007°30'1211.9
2015-Jun-29 19:33N 54°10' E 007°41'1212.0
2015-Jun-29 18:34N 54°04' E 007°58'1212.0
2015-Jun-29 17:32N 54°00' E 008°18'1313.1
2015-Jun-29 16:34N 53°57' E 008°39'1413.6
2015-Jun-29 15:33N 53°51' E 008°60'1413.6
2015-Jun-29 14:33N 53°49' E 009°23'1313.3
2015-Jun-29 13:33N 53°37' E 009°34'9 8.8
2015-Jun-29 12:33N 53°33' E 009°47'5 4.7
2015-Jun-29 11:33N 53°32' E 009°55'0 0.0
2015-Jun-29 10:33N 53°32' E 009°55'0 0.0
2015-Jun-29 09:33N 53°32' E 009°55'0 0.0
2015-Jun-29 08:31N 53°32' E 009°55'0 0.0
2015-Jun-29 07:33N 53°32' E 009°55'0 0.0
2015-Jun-29 06:33N 53°32' E 009°55'0 0.0
2015-Jun-29 05:33N 53°32' E 009°55'0 0.1
2015-Jun-29 04:33N 53°32' E 009°55'2 0.9
2015-Jun-29 02:32N 53°32' E 009°58'0 0.0
2015-Jun-29 01:31N 53°32' E 009°58'0 0.0
2015-Jun-29 00:31N 53°32' E 009°58'0 0.0
2015-Jun-28 23:31N 53°32' E 009°58'0 0.0
2015-Jun-28 22:31N 53°32' E 009°58'0 0.0
2015-Jun-28 21:31N 53°32' E 009°58'0 0.0
2015-Jun-28 20:31N 53°32' E 009°58'0 0.0
2015-Jun-28 19:31N 53°32' E 009°58'0 0.0
2015-Jun-28 18:32N 53°32' E 009°58'0 0.0
2015-Jun-28 17:32N 53°32' E 009°58'0 0.0
2015-Jun-28 16:32N 53°32' E 009°58'0 0.0
2015-Jun-28 15:32N 53°32' E 009°58'0 0.0
2015-Jun-28 14:32N 53°32' E 009°58'0 0.0
2015-Jun-28 13:32N 53°32' E 009°58'0 0.0
2015-Jun-28 12:32N 53°32' E 009°58'0 0.0
2015-Jun-28 11:29N 53°32' E 009°58'0 0.0
2015-Jun-28 10:32N 53°32' E 009°58'0 0.0
2015-Jun-28 09:32N 53°32' E 009°58'0 0.0
2015-Jun-28 08:27N 53°32' E 009°58'0 0.0
2015-Jun-28 07:27N 53°32' E 009°58'0 0.0
2015-Jun-28 06:27N 53°32' E 009°58'0 0.0
2015-Jun-28 03:21N 53°32' E 009°58'0 0.0
2015-Jun-28 02:27N 53°32' E 009°58'0 0.0
2015-Jun-28 01:32N 53°32' E 009°58'0 0.0
2015-Jun-28 00:32N 53°32' E 009°58'0 0.0
2015-Jun-27 23:26N 53°32' E 009°58'0 0.0
2015-Jun-27 22:26N 53°32' E 009°58'0 0.0
2015-Jun-27 21:32N 53°32' E 009°58'0 0.0
2015-Jun-27 20:32N 53°32' E 009°58'0 0.0
2015-Jun-27 19:32N 53°32' E 009°58'0 0.0
2015-Jun-27 18:26N 53°32' E 009°58'0 0.0
2015-Jun-27 17:26N 53°32' E 009°58'0 0.0
2015-Jun-27 16:26N 53°32' E 009°58'0 0.0
2015-Jun-27 15:32N 53°32' E 009°58'0 0.0
2015-Jun-27 14:32N 53°32' E 009°58'0 0.0
2015-Jun-27 13:14N 53°32' E 009°58'0 0.0
2015-Jun-27 12:32N 53°32' E 009°58'0 0.0
2015-Jun-27 11:32N 53°32' E 009°58'0 0.0
2015-Jun-27 10:32N 53°32' E 009°58'0 0.0
2015-Jun-27 09:32N 53°32' E 009°58'0 0.0
2015-Jun-27 08:22N 53°32' E 009°58'0 0.0
2015-Jun-27 07:28N 53°32' E 009°58'0 0.0
2015-Jun-27 05:33N 53°32' E 009°58'0 0.0
2015-Jun-27 03:28N 53°32' E 009°58'0 0.0
2015-Jun-27 02:13N 53°32' E 009°58'0 0.0
2015-Jun-27 01:32N 53°32' E 009°58'0 0.0
2015-Jun-27 00:32N 53°32' E 009°58'0 0.0
2015-Jun-26 23:32N 53°32' E 009°58'0 0.0
2015-Jun-26 22:32N 53°32' E 009°58'0 0.0
2015-Jun-26 21:29N 53°32' E 009°58'0 0.0
2015-Jun-26 20:26N 53°32' E 009°58'0 0.0
2015-Jun-26 19:08N 53°32' E 009°58'0 0.0
2015-Jun-26 18:32N 53°32' E 009°58'0 0.0
2015-Jun-26 17:29N 53°32' E 009°58'0 0.0
2015-Jun-26 16:20N 53°32' E 009°58'0 0.0
2015-Jun-26 15:32N 53°32' E 009°58'0 0.0
2015-Jun-26 14:32N 53°32' E 009°58'0 0.0
2015-Jun-26 13:32N 53°32' E 009°58'0 0.0
2015-Jun-26 12:32N 53°32' E 009°58'0 0.0
2015-Jun-26 11:32N 53°32' E 009°58'0 0.0
2015-Jun-26 10:32N 53°32' E 009°58'0 0.0
2015-Jun-26 09:32N 53°32' E 009°58'0 0.0
2015-Jun-26 07:04N 53°32' E 009°58'0 0.0
2015-Jun-26 06:24N 53°32' E 009°58'0 0.0
2015-Jun-26 05:29N 53°32' E 009°58'0 0.0
2015-Jun-26 04:32N 53°32' E 009°58'0 0.0
2015-Jun-26 02:15N 53°32' E 009°58'0 0.0
2015-Jun-26 01:32N 53°32' E 009°58'0 0.0
2015-Jun-26 00:32N 53°32' E 009°58'0 0.0
2015-Jun-25 23:32N 53°32' E 009°58'0 0.0
2015-Jun-25 22:32N 53°32' E 009°58'0 0.0
2015-Jun-25 21:32N 53°32' E 009°58'0 0.0
2015-Jun-25 20:32N 53°32' E 009°58'0 0.0
2015-Jun-25 19:32N 53°32' E 009°58'0 0.0
2015-Jun-25 18:32N 53°32' E 009°58'0 0.0
2015-Jun-25 17:32N 53°32' E 009°58'0 0.0
2015-Jun-25 16:29N 53°32' E 009°58'0 0.0
2015-Jun-25 15:32N 53°32' E 009°58'0 0.0
2015-Jun-25 14:32N 53°32' E 009°58'0 0.0
2015-Jun-25 13:29N 53°32' E 009°58'0 0.0
2015-Jun-25 12:29N 53°32' E 009°58'0 0.0
2015-Jun-25 11:32N 53°32' E 009°58'0 0.0
2015-Jun-25 10:29N 53°32' E 009°58'0 0.0
2015-Jun-25 09:27N 53°32' E 009°58'0 0.0
2015-Jun-25 08:19N 53°32' E 009°58'0 0.0
2015-Jun-25 06:24N 53°32' E 009°58'0 0.0
2015-Jun-25 05:25N 53°32' E 009°58'0 0.0
2015-Jun-25 03:13N 53°32' E 009°58'0 0.0
2015-Jun-25 02:22N 53°32' E 009°58'0 0.0
2015-Jun-25 01:32N 53°32' E 009°58'0 0.0
2015-Jun-25 00:32N 53°32' E 009°58'0 0.0
2015-Jun-24 23:32N 53°32' E 009°58'0 0.0
2015-Jun-24 22:29N 53°32' E 009°58'0 0.0
2015-Jun-24 21:33N 53°32' E 009°58'0 0.0
2015-Jun-24 20:30N 53°32' E 009°58'0 0.0
2015-Jun-24 19:29N 53°32' E 009°58'0 0.0
2015-Jun-24 18:29N 53°32' E 009°58'0 0.0
2015-Jun-24 17:29N 53°32' E 009°58'0 0.0
2015-Jun-24 16:32N 53°32' E 009°58'0 0.0
2015-Jun-24 15:29N 53°32' E 009°58'0 0.0
2015-Jun-24 14:32N 53°32' E 009°58'0 0.0
2015-Jun-24 13:29N 53°32' E 009°58'0 0.0
2015-Jun-24 12:23N 53°32' E 009°58'0 0.0
2015-Jun-24 11:32N 53°32' E 009°58'0 0.0
2015-Jun-24 10:29N 53°32' E 009°58'0 0.0
2015-Jun-24 09:29N 53°32' E 009°58'0 0.0
2015-Jun-24 08:32N 53°32' E 009°58'0 0.0
2015-Jun-24 07:31N 53°32' E 009°58'0 0.0
2015-Jun-24 06:24N 53°32' E 009°58'0 0.0
2015-Jun-24 04:30N 53°32' E 009°58'0 0.0
2015-Jun-24 02:22N 53°32' E 009°58'0 0.0
2015-Jun-24 01:33N 53°32' E 009°58'0 0.0
2015-Jun-24 00:30N 53°32' E 009°58'0 0.0
2015-Jun-23 23:29N 53°32' E 009°58'0 0.0
2015-Jun-23 22:29N 53°32' E 009°58'0 0.0
2015-Jun-23 21:32N 53°32' E 009°58'0 0.0
2015-Jun-23 20:32N 53°32' E 009°58'0 0.0
2015-Jun-23 19:32N 53°32' E 009°58'0 0.0
2015-Jun-23 19:05N 53°32' E 009°58'0 0.0
2015-Jun-22 11:23N 53°32' E 009°58'0 0.0
2015-Jun-22 10:29N 53°32' E 009°58'0 0.0
2015-Jun-22 09:29N 53°32' E 009°58'0 0.0
2015-Jun-22 07:08N 53°32' E 009°58'0 0.0
2015-Jun-22 05:33N 53°32' E 009°58'0 0.0
2015-Jun-22 04:33N 53°32' E 009°58'0 0.0
2015-Jun-22 03:33N 53°32' E 009°58'0 0.0
2015-Jun-22 02:31N 53°32' E 009°58'0 0.0
2015-Jun-22 01:33N 53°32' E 009°58'0 0.0
2015-Jun-22 00:33N 53°32' E 009°58'0 0.0
2015-Jun-21 23:33N 53°32' E 009°58'0 0.0
2015-Jun-21 22:33N 53°32' E 009°58'0 0.0
2015-Jun-21 21:33N 53°32' E 009°58'0 0.0
2015-Jun-21 20:33N 53°32' E 009°58'0 0.0
2015-Jun-21 19:33N 53°32' E 009°58'0 0.0
2015-Jun-21 18:33N 53°32' E 009°58'  
Track history (hours):
 
Tides and Currents Weather Stations Pressure Air Temp Water Temp Dewpoint Dewpoint Depression Visibility Wind Speed Wind Dir Waves Ship Positions

Berta

Last reported at 2015-Jul-01 18:33 UTC. Time now 2015-Jul-03 23:39 UTC.
Position N 59°16' E 004°59'.

Length 107 m; draft 6.8 m.

Type: Cargo ship. MMSI: 304586000.

Date/timePositionNaut miles runAvg speedWind from/ knotsBaromVisibWave heightAir tempDewpointWater temp
2015-Jul-01 18:33N 59°16' E 004°59'1312.6
2015-Jul-01 17:33N 59°07' E 005°16'1211.6
2015-Jul-01 16:33N 59°18' E 005°20'2 0.4
2015-Jul-01 10:33N 59°16' E 005°20'1212.3
2015-Jul-01 09:33N 59°06' E 005°32'10 8.3
2015-Jul-01 08:18N 58°55' E 005°35'0 0.0
2015-Jul-01 07:33N 58°55' E 005°35'0 0.0
2015-Jul-01 06:33N 58°55' E 005°35'0 0.0
2015-Jul-01 05:33N 58°55' E 005°35'5 5.2
2015-Jul-01 04:33N 58°51' E 005°30'8 8.4
2015-Jul-01 03:33N 58°43' E 005°25'1212.3
2015-Jul-01 02:33N 58°31' E 005°29'1212.2
2015-Jul-01 01:33N 58°18' E 005°33'1311.8
2015-Jul-01 00:29N 58°06' E 005°37'168 7.3
2015-Jun-30 01:34N 55°23' E 006°52'1313.3
2015-Jun-30 00:33N 55°11' E 006°60'1313.3
2015-Jun-29 23:33N 54°58' E 007°08'1313.4
2015-Jun-29 22:33N 54°45' E 007°14'1813.4
2015-Jun-29 21:13N 54°28' E 007°25'812.4
2015-Jun-29 20:33N 54°20' E 007°30'1211.9
2015-Jun-29 19:33N 54°10' E 007°41'1212.0
2015-Jun-29 18:34N 54°04' E 007°58'1212.0
2015-Jun-29 17:32N 54°00' E 008°18'1313.1
2015-Jun-29 16:34N 53°57' E 008°39'1413.6
2015-Jun-29 15:33N 53°51' E 008°60'1413.6
2015-Jun-29 14:33N 53°49' E 009°23'1313.3
2015-Jun-29 13:33N 53°37' E 009°34'9 8.8
2015-Jun-29 12:33N 53°33' E 009°47'5 4.7
2015-Jun-29 11:33N 53°32' E 009°55'0 0.0
2015-Jun-29 10:33N 53°32' E 009°55'0 0.0
2015-Jun-29 09:33N 53°32' E 009°55'0 0.0
2015-Jun-29 08:31N 53°32' E 009°55'0 0.0
2015-Jun-29 07:33N 53°32' E 009°55'0 0.0
2015-Jun-29 06:33N 53°32' E 009°55'0 0.0
2015-Jun-29 05:33N 53°32' E 009°55'0 0.1
2015-Jun-29 04:33N 53°32' E 009°55'2 0.9
2015-Jun-29 02:32N 53°32' E 009°58'0 0.0
2015-Jun-29 01:31N 53°32' E 009°58'0 0.0
2015-Jun-29 00:31N 53°32' E 009°58'0 0.0
2015-Jun-28 23:31N 53°32' E 009°58'0 0.0
2015-Jun-28 22:31N 53°32' E 009°58'0 0.0
2015-Jun-28 21:31N 53°32' E 009°58'0 0.0
2015-Jun-28 20:31N 53°32' E 009°58'0 0.0
2015-Jun-28 19:31N 53°32' E 009°58'0 0.0
2015-Jun-28 18:32N 53°32' E 009°58'0 0.0
2015-Jun-28 17:32N 53°32' E 009°58'0 0.0
2015-Jun-28 16:32N 53°32' E 009°58'0 0.0
2015-Jun-28 15:32N 53°32' E 009°58'0 0.0
2015-Jun-28 14:32N 53°32' E 009°58'0 0.0
2015-Jun-28 13:32N 53°32' E 009°58'0 0.0
2015-Jun-28 12:32N 53°32' E 009°58'0 0.0
2015-Jun-28 11:29N 53°32' E 009°58'0 0.0
2015-Jun-28 10:32N 53°32' E 009°58'0 0.0
2015-Jun-28 09:32N 53°32' E 009°58'0 0.0
2015-Jun-28 08:27N 53°32' E 009°58'0 0.0
2015-Jun-28 07:27N 53°32' E 009°58'0 0.0
2015-Jun-28 06:27N 53°32' E 009°58'0 0.0
2015-Jun-28 03:21N 53°32' E 009°58'0 0.0
2015-Jun-28 02:27N 53°32' E 009°58'0 0.0
2015-Jun-28 01:32N 53°32' E 009°58'0 0.0
2015-Jun-28 00:32N 53°32' E 009°58'0 0.0
2015-Jun-27 23:26N 53°32' E 009°58'0 0.0
2015-Jun-27 22:26N 53°32' E 009°58'0 0.0
2015-Jun-27 21:32N 53°32' E 009°58'0 0.0
2015-Jun-27 20:32N 53°32' E 009°58'0 0.0
2015-Jun-27 19:32N 53°32' E 009°58'0 0.0
2015-Jun-27 18:26N 53°32' E 009°58'0 0.0
2015-Jun-27 17:26N 53°32' E 009°58'0 0.0
2015-Jun-27 16:26N 53°32' E 009°58'0 0.0
2015-Jun-27 15:32N 53°32' E 009°58'0 0.0
2015-Jun-27 14:32N 53°32' E 009°58'0 0.0
2015-Jun-27 13:14N 53°32' E 009°58'0 0.0
2015-Jun-27 12:32N 53°32' E 009°58'0 0.0
2015-Jun-27 11:32N 53°32' E 009°58'0 0.0
2015-Jun-27 10:32N 53°32' E 009°58'0 0.0
2015-Jun-27 09:32N 53°32' E 009°58'0 0.0
2015-Jun-27 08:22N 53°32' E 009°58'0 0.0
2015-Jun-27 07:28N 53°32' E 009°58'0 0.0
2015-Jun-27 05:33N 53°32' E 009°58'0 0.0
2015-Jun-27 03:28N 53°32' E 009°58'0 0.0
2015-Jun-27 02:13N 53°32' E 009°58'0 0.0
2015-Jun-27 01:32N 53°32' E 009°58'0 0.0
2015-Jun-27 00:32N 53°32' E 009°58'0 0.0
2015-Jun-26 23:32N 53°32' E 009°58'0 0.0
2015-Jun-26 22:32N 53°32' E 009°58'0 0.0
2015-Jun-26 21:29N 53°32' E 009°58'0 0.0
2015-Jun-26 20:26N 53°32' E 009°58'0 0.0
2015-Jun-26 19:08N 53°32' E 009°58'0 0.0
2015-Jun-26 18:32N 53°32' E 009°58'0 0.0
2015-Jun-26 17:29N 53°32' E 009°58'0 0.0
2015-Jun-26 16:20N 53°32' E 009°58'0 0.0
2015-Jun-26 15:32N 53°32' E 009°58'0 0.0
2015-Jun-26 14:32N 53°32' E 009°58'0 0.0
2015-Jun-26 13:32N 53°32' E 009°58'0 0.0
2015-Jun-26 12:32N 53°32' E 009°58'0 0.0
2015-Jun-26 11:32N 53°32' E 009°58'0 0.0
2015-Jun-26 10:32N 53°32' E 009°58'0 0.0
2015-Jun-26 09:32N 53°32' E 009°58'0 0.0
2015-Jun-26 07:04N 53°32' E 009°58'0 0.0
2015-Jun-26 06:24N 53°32' E 009°58'0 0.0
2015-Jun-26 05:29N 53°32' E 009°58'0 0.0
2015-Jun-26 04:32N 53°32' E 009°58'0 0.0
2015-Jun-26 02:15N 53°32' E 009°58'0 0.0
2015-Jun-26 01:32N 53°32' E 009°58'0 0.0
2015-Jun-26 00:32N 53°32' E 009°58'0 0.0
2015-Jun-25 23:32N 53°32' E 009°58'0 0.0
2015-Jun-25 22:32N 53°32' E 009°58'0 0.0
2015-Jun-25 21:32N 53°32' E 009°58'0 0.0
2015-Jun-25 20:32N 53°32' E 009°58'0 0.0
2015-Jun-25 19:32N 53°32' E 009°58'0 0.0
2015-Jun-25 18:32N 53°32' E 009°58'0 0.0
2015-Jun-25 17:32N 53°32' E 009°58'0 0.0
2015-Jun-25 16:29N 53°32' E 009°58'0 0.0
2015-Jun-25 15:32N 53°32' E 009°58'0 0.0
2015-Jun-25 14:32N 53°32' E 009°58'0 0.0
2015-Jun-25 13:29N 53°32' E 009°58'0 0.0
2015-Jun-25 12:29N 53°32' E 009°58'0 0.0
2015-Jun-25 11:32N 53°32' E 009°58'0 0.0
2015-Jun-25 10:29N 53°32' E 009°58'0 0.0
2015-Jun-25 09:27N 53°32' E 009°58'0 0.0
2015-Jun-25 08:19N 53°32' E 009°58'0 0.0
2015-Jun-25 06:24N 53°32' E 009°58'0 0.0
2015-Jun-25 05:25N 53°32' E 009°58'0 0.0
2015-Jun-25 03:13N 53°32' E 009°58'0 0.0
2015-Jun-25 02:22N 53°32' E 009°58'0 0.0
2015-Jun-25 01:32N 53°32' E 009°58'0 0.0
2015-Jun-25 00:32N 53°32' E 009°58'0 0.0
2015-Jun-24 23:32N 53°32' E 009°58'0 0.0
2015-Jun-24 22:29N 53°32' E 009°58'0 0.0
2015-Jun-24 21:33N 53°32' E 009°58'0 0.0
2015-Jun-24 20:30N 53°32' E 009°58'0 0.0
2015-Jun-24 19:29N 53°32' E 009°58'0 0.0
2015-Jun-24 18:29N 53°32' E 009°58'0 0.0
2015-Jun-24 17:29N 53°32' E 009°58'0 0.0
2015-Jun-24 16:32N 53°32' E 009°58'0 0.0
2015-Jun-24 15:29N 53°32' E 009°58'0 0.0
2015-Jun-24 14:32N 53°32' E 009°58'0 0.0
2015-Jun-24 13:29N 53°32' E 009°58'0 0.0
2015-Jun-24 12:23N 53°32' E 009°58'0 0.0
2015-Jun-24 11:32N 53°32' E 009°58'0 0.0
2015-Jun-24 10:29N 53°32' E 009°58'0 0.0
2015-Jun-24 09:29N 53°32' E 009°58'0 0.0
2015-Jun-24 08:32N 53°32' E 009°58'0 0.0
2015-Jun-24 07:31N 53°32' E 009°58'0 0.0
2015-Jun-24 06:24N 53°32' E 009°58'0 0.0
2015-Jun-24 04:30N 53°32' E 009°58'0 0.0
2015-Jun-24 02:22N 53°32' E 009°58'0 0.0
2015-Jun-24 01:33N 53°32' E 009°58'0 0.0
2015-Jun-24 00:30N 53°32' E 009°58'0 0.0
2015-Jun-23 23:29N 53°32' E 009°58'0 0.0
2015-Jun-23 22:29N 53°32' E 009°58'0 0.0
2015-Jun-23 21:32N 53°32' E 009°58'0 0.0
2015-Jun-23 20:32N 53°32' E 009°58'0 0.0
2015-Jun-23 19:32N 53°32' E 009°58'0 0.0
2015-Jun-23 19:05N 53°32' E 009°58'0 0.0
2015-Jun-22 11:23N 53°32' E 009°58'0 0.0
2015-Jun-22 10:29N 53°32' E 009°58'0 0.0
2015-Jun-22 09:29N 53°32' E 009°58'0 0.0
2015-Jun-22 07:08N 53°32' E 009°58'0 0.0
2015-Jun-22 05:33N 53°32' E 009°58'0 0.0
2015-Jun-22 04:33N 53°32' E 009°58'0 0.0
2015-Jun-22 03:33N 53°32' E 009°58'0 0.0
2015-Jun-22 02:31N 53°32' E 009°58'0 0.0
2015-Jun-22 01:33N 53°32' E 009°58'0 0.0
2015-Jun-22 00:33N 53°32' E 009°58'0 0.0
2015-Jun-21 23:33N 53°32' E 009°58'0 0.0
2015-Jun-21 22:33N 53°32' E 009°58'0 0.0
2015-Jun-21 21:33N 53°32' E 009°58'0 0.0
2015-Jun-21 20:33N 53°32' E 009°58'0 0.0
2015-Jun-21 19:33N 53°32' E 009°58'0 0.0
2015-Jun-21 18:33N 53°32' E 009°58'  

Dump ship's entire track history